BAW9BE EGLL-EBBR
Flight info
| Callsign | BAW9BE |
|---|---|
| Flight time | 0h 38m |
| Altitude | 23000 |
| Route | DET Q70 KOK |
| Aircraft | A319/M-SDE3FGIJ1KRWXY/LB1 |
Departure
| Time | 2026-05-07 19:36 |
|---|---|
| Airport | London Heathrow Airport (EGLL) |
Arrival
| Time | 2026-05-07 20:14 |
|---|---|
| Airport | Brussels Airport (EBBR) |
| Time | Latitude | Longitude | Altitude | Speed | Heading |
|---|---|---|---|---|---|
| 2026-05-07 18:53 | 51.47308 | -0.48052 | 87 ft | 0 kts | 270° |
| 2026-05-07 19:11 | 51.47308 | -0.48029 | 91 ft | 4 kts | 270° |
| 2026-05-07 19:11 | 51.47308 | -0.47986 | 90 ft | 4 kts | 270° |
| 2026-05-07 19:11 | 51.47308 | -0.47948 | 91 ft | 2 kts | 270° |
| 2026-05-07 19:12 | 51.47313 | -0.47909 | 89 ft | 4 kts | 231° |
| 2026-05-07 19:12 | 51.47333 | -0.47883 | 88 ft | 4 kts | 200° |
| 2026-05-07 19:12 | 51.47355 | -0.47875 | 87 ft | 1 kts | 180° |
| 2026-05-07 19:12 | 51.47344 | -0.47875 | 88 ft | 0 kts | 180° |
| 2026-05-07 19:20 | 51.47343 | -0.47875 | 89 ft | 1 kts | 180° |
| 2026-05-07 19:21 | 51.47316 | -0.47875 | 89 ft | 6 kts | 180° |
| 2026-05-07 19:21 | 51.47252 | -0.47874 | 87 ft | 12 kts | 179° |
| 2026-05-07 19:21 | 51.47175 | -0.47873 | 87 ft | 11 kts | 179° |
| 2026-05-07 19:21 | 51.47139 | -0.47873 | 87 ft | 1 kts | 179° |
| 2026-05-07 19:22 | 51.47100 | -0.47873 | 87 ft | 11 kts | 180° |
| 2026-05-07 19:22 | 51.47002 | -0.47872 | 87 ft | 17 kts | 180° |
| 2026-05-07 19:22 | 51.46868 | -0.47870 | 87 ft | 21 kts | 179° |
| 2026-05-07 19:22 | 51.46743 | -0.47849 | 88 ft | 9 kts | 182° |
| 2026-05-07 19:23 | 51.46737 | -0.47951 | 87 ft | 12 kts | 277° |
| 2026-05-07 19:23 | 51.46742 | -0.48105 | 87 ft | 16 kts | 270° |
| 2026-05-07 19:23 | 51.46742 | -0.48179 | 87 ft | 0 kts | 269° |
| 2026-05-07 19:23 | 51.46742 | -0.48180 | 87 ft | 0 kts | 269° |
| 2026-05-07 19:25 | 51.46741 | -0.48219 | 87 ft | 8 kts | 269° |
| 2026-05-07 19:25 | 51.46742 | -0.48346 | 87 ft | 13 kts | 270° |
| 2026-05-07 19:26 | 51.46728 | -0.48461 | 90 ft | 10 kts | 229° |
| 2026-05-07 19:26 | 51.46666 | -0.48470 | 87 ft | 6 kts | 181° |
| 2026-05-07 19:26 | 51.46662 | -0.48470 | 87 ft | 0 kts | 181° |
| 2026-05-07 19:27 | 51.46654 | -0.48470 | 87 ft | 2 kts | 180° |
| 2026-05-07 19:27 | 51.46628 | -0.48470 | 87 ft | 5 kts | 180° |
| 2026-05-07 19:27 | 51.46605 | -0.48470 | 88 ft | 4 kts | 180° |
| 2026-05-07 19:28 | 51.46586 | -0.48470 | 88 ft | 0 kts | 180° |
| 2026-05-07 19:34 | 51.46570 | -0.48470 | 88 ft | 5 kts | 180° |
| 2026-05-07 19:34 | 51.46529 | -0.48469 | 89 ft | 7 kts | 180° |
| 2026-05-07 19:34 | 51.46480 | -0.48448 | 90 ft | 8 kts | 124° |
| 2026-05-07 19:34 | 51.46477 | -0.48354 | 89 ft | 0 kts | 89° |
| 2026-05-07 19:35 | 51.46477 | -0.48350 | 89 ft | 3 kts | 89° |
| 2026-05-07 19:35 | 51.46478 | -0.48075 | 87 ft | 54 kts | 90° |
| 2026-05-07 19:35 | 51.46482 | -0.47148 | 87 ft | 110 kts | 89° |
| 2026-05-07 19:36 | 51.46486 | -0.45665 | 94 ft | 157 kts | 91° |
| 2026-05-07 19:36 | 51.46486 | -0.44017 | 785 ft | 147 kts | 92° |
| 2026-05-07 19:36 | 51.46488 | -0.42366 | 1343 ft | 153 kts | 95° |
| 2026-05-07 19:36 | 51.46019 | -0.40741 | 1709 ft | 175 kts | 131° |
| 2026-05-07 19:37 | 51.45232 | -0.39085 | 2126 ft | 199 kts | 124° |
| 2026-05-07 19:37 | 51.44462 | -0.37066 | 2558 ft | 225 kts | 121° |
| 2026-05-07 19:37 | 51.43682 | -0.34735 | 3154 ft | 249 kts | 111° |
| 2026-05-07 19:37 | 51.43285 | -0.31969 | 4085 ft | 258 kts | 101° |
| 2026-05-07 19:38 | 51.42904 | -0.29135 | 5141 ft | 263 kts | 102° |
| 2026-05-07 19:38 | 51.42495 | -0.26231 | 5760 ft | 269 kts | 102° |
| 2026-05-07 19:38 | 51.42085 | -0.23286 | 6331 ft | 272 kts | 102° |
| 2026-05-07 19:38 | 51.41675 | -0.20320 | 7309 ft | 275 kts | 103° |
| 2026-05-07 19:39 | 51.41258 | -0.17295 | 8247 ft | 281 kts | 103° |
| 2026-05-07 19:39 | 51.40835 | -0.14217 | 9168 ft | 286 kts | 103° |
| 2026-05-07 19:39 | 51.40402 | -0.11065 | 10074 ft | 292 kts | 103° |
| 2026-05-07 19:39 | 51.40107 | -0.08928 | 10414 ft | 305 kts | 104° |
| 2026-05-07 19:40 | 51.39461 | -0.04271 | 10859 ft | 334 kts | 104° |
| 2026-05-07 19:40 | 51.38947 | -0.00596 | 11536 ft | 341 kts | 104° |
| 2026-05-07 19:40 | 51.38424 | 0.03140 | 12300 ft | 346 kts | 104° |
| 2026-05-07 19:40 | 51.37898 | 0.06917 | 13114 ft | 350 kts | 104° |
| 2026-05-07 19:41 | 51.37366 | 0.10740 | 13891 ft | 353 kts | 104° |
| 2026-05-07 19:41 | 51.36826 | 0.14598 | 14571 ft | 357 kts | 104° |
| 2026-05-07 19:41 | 51.36281 | 0.18498 | 15239 ft | 361 kts | 104° |
| 2026-05-07 19:41 | 51.35735 | 0.22393 | 15896 ft | 366 kts | 104° |
| 2026-05-07 19:42 | 51.35172 | 0.26385 | 16567 ft | 370 kts | 104° |
| 2026-05-07 19:42 | 51.34600 | 0.30416 | 17215 ft | 374 kts | 104° |
| 2026-05-07 19:42 | 51.34018 | 0.34497 | 17715 ft | 379 kts | 104° |
| 2026-05-07 19:42 | 51.33434 | 0.38630 | 18325 ft | 383 kts | 103° |
| 2026-05-07 19:43 | 51.32933 | 0.42834 | 18898 ft | 387 kts | 101° |
| 2026-05-07 19:43 | 51.32507 | 0.47114 | 19492 ft | 391 kts | 99° |
| 2026-05-07 19:43 | 51.32119 | 0.51434 | 20097 ft | 395 kts | 99° |
| 2026-05-07 19:43 | 51.31865 | 0.54327 | 20501 ft | 398 kts | 99° |
| 2026-05-07 19:44 | 51.31475 | 0.58725 | 21097 ft | 401 kts | 99° |
| 2026-05-07 19:44 | 51.31066 | 0.63154 | 21700 ft | 405 kts | 100° |
| 2026-05-07 19:44 | 51.30634 | 0.67620 | 22279 ft | 408 kts | 100° |
| 2026-05-07 19:44 | 51.30187 | 0.72109 | 22809 ft | 412 kts | 100° |
| 2026-05-07 19:45 | 51.29730 | 0.76635 | 22958 ft | 410 kts | 100° |
| 2026-05-07 19:45 | 51.29275 | 0.81104 | 23002 ft | 406 kts | 100° |
| 2026-05-07 19:45 | 51.28819 | 0.85579 | 23025 ft | 414 kts | 101° |
| 2026-05-07 19:45 | 51.28346 | 0.90206 | 23085 ft | 429 kts | 100° |
| 2026-05-07 19:46 | 51.27858 | 0.94993 | 23087 ft | 443 kts | 100° |
| 2026-05-07 19:46 | 51.27355 | 0.99922 | 23086 ft | 456 kts | 100° |
| 2026-05-07 19:46 | 51.26838 | 1.04977 | 23083 ft | 467 kts | 100° |
| 2026-05-07 19:46 | 51.26307 | 1.10146 | 23085 ft | 476 kts | 100° |
| 2026-05-07 19:47 | 51.25768 | 1.15387 | 23085 ft | 480 kts | 100° |
| 2026-05-07 19:47 | 51.25219 | 1.20685 | 23084 ft | 486 kts | 100° |
| 2026-05-07 19:47 | 51.24664 | 1.26021 | 23083 ft | 489 kts | 100° |
| 2026-05-07 19:47 | 51.24113 | 1.31311 | 23087 ft | 490 kts | 100° |
| 2026-05-07 19:48 | 51.23541 | 1.36741 | 23082 ft | 490 kts | 101° |
| 2026-05-07 19:48 | 51.22977 | 1.42032 | 23082 ft | 490 kts | 101° |
| 2026-05-07 19:48 | 51.22402 | 1.47387 | 23082 ft | 490 kts | 101° |
| 2026-05-07 19:48 | 51.21827 | 1.52741 | 23085 ft | 490 kts | 101° |
| 2026-05-07 19:49 | 51.21251 | 1.58108 | 23082 ft | 490 kts | 101° |
| 2026-05-07 19:49 | 51.20677 | 1.63471 | 23080 ft | 490 kts | 101° |
| 2026-05-07 19:49 | 51.20101 | 1.68832 | 23082 ft | 490 kts | 101° |
| 2026-05-07 19:49 | 51.19522 | 1.74185 | 23081 ft | 490 kts | 101° |
| 2026-05-07 19:50 | 51.18941 | 1.79538 | 23081 ft | 490 kts | 101° |
| 2026-05-07 19:50 | 51.18357 | 1.84888 | 23078 ft | 490 kts | 101° |
| 2026-05-07 19:50 | 51.17765 | 1.90248 | 23076 ft | 490 kts | 101° |
| 2026-05-07 19:50 | 51.17170 | 1.95600 | 23076 ft | 490 kts | 101° |
| 2026-05-07 19:51 | 51.16573 | 2.00948 | 23072 ft | 490 kts | 101° |
| 2026-05-07 19:51 | 51.15974 | 2.06312 | 23074 ft | 490 kts | 101° |
| 2026-05-07 19:51 | 51.15376 | 2.11669 | 23072 ft | 490 kts | 101° |
| 2026-05-07 19:51 | 51.14777 | 2.17010 | 23072 ft | 490 kts | 101° |
| 2026-05-07 19:52 | 51.14181 | 2.22283 | 23071 ft | 491 kts | 101° |
| 2026-05-07 19:52 | 51.13575 | 2.27629 | 23072 ft | 491 kts | 101° |
| 2026-05-07 19:52 | 51.12967 | 2.32976 | 23070 ft | 491 kts | 101° |
| 2026-05-07 19:52 | 51.12357 | 2.38314 | 23071 ft | 491 kts | 101° |
| 2026-05-07 19:53 | 51.11743 | 2.43648 | 23069 ft | 491 kts | 101° |
| 2026-05-07 19:53 | 51.11124 | 2.48997 | 23068 ft | 491 kts | 101° |
| 2026-05-07 19:53 | 51.10502 | 2.54332 | 23071 ft | 491 kts | 101° |
| 2026-05-07 19:53 | 51.09879 | 2.59672 | 23073 ft | 491 kts | 101° |
| 2026-05-07 19:54 | 51.09252 | 2.65006 | 23069 ft | 491 kts | 101° |
| 2026-05-07 19:54 | 51.08624 | 2.70337 | 23073 ft | 491 kts | 101° |
| 2026-05-07 19:54 | 51.07995 | 2.75680 | 22948 ft | 487 kts | 101° |
| 2026-05-07 19:54 | 51.07578 | 2.80970 | 22037 ft | 480 kts | 93° |
| 2026-05-07 19:55 | 51.07468 | 2.86248 | 21074 ft | 474 kts | 92° |
| 2026-05-07 19:55 | 51.07370 | 2.91443 | 20134 ft | 467 kts | 92° |
| 2026-05-07 19:55 | 51.07272 | 2.96571 | 19241 ft | 460 kts | 92° |
| 2026-05-07 19:55 | 51.07174 | 3.01620 | 18374 ft | 454 kts | 92° |
| 2026-05-07 19:56 | 51.07076 | 3.06599 | 17398 ft | 447 kts | 92° |
| 2026-05-07 19:56 | 51.06983 | 3.11509 | 16440 ft | 440 kts | 92° |
| 2026-05-07 19:56 | 51.06896 | 3.16271 | 15513 ft | 434 kts | 92° |
| 2026-05-07 19:56 | 51.06812 | 3.21024 | 14616 ft | 428 kts | 92° |
| 2026-05-07 19:57 | 51.06730 | 3.25721 | 13746 ft | 422 kts | 92° |
| 2026-05-07 19:57 | 51.06649 | 3.30356 | 12834 ft | 417 kts | 92° |
| 2026-05-07 19:57 | 51.06563 | 3.34939 | 12256 ft | 415 kts | 92° |
| 2026-05-07 19:57 | 51.06474 | 3.39514 | 12071 ft | 414 kts | 92° |
| 2026-05-07 19:58 | 51.06384 | 3.44090 | 12074 ft | 414 kts | 92° |
| 2026-05-07 19:58 | 51.06292 | 3.48663 | 12080 ft | 414 kts | 92° |
| 2026-05-07 19:58 | 51.06201 | 3.53242 | 12080 ft | 414 kts | 92° |
| 2026-05-07 19:58 | 51.06108 | 3.57818 | 12081 ft | 414 kts | 92° |
| 2026-05-07 19:59 | 51.06014 | 3.62366 | 11879 ft | 406 kts | 92° |
| 2026-05-07 19:59 | 51.05925 | 3.66724 | 11740 ft | 384 kts | 92° |
| 2026-05-07 19:59 | 51.05841 | 3.70873 | 11504 ft | 366 kts | 92° |
| 2026-05-07 19:59 | 51.05760 | 3.74834 | 11250 ft | 351 kts | 92° |
| 2026-05-07 20:00 | 51.05681 | 3.78638 | 11005 ft | 338 kts | 92° |
| 2026-05-07 20:00 | 51.05604 | 3.82279 | 10786 ft | 320 kts | 92° |
| 2026-05-07 20:00 | 51.05530 | 3.85722 | 10639 ft | 304 kts | 92° |
| 2026-05-07 20:00 | 51.05459 | 3.89029 | 10494 ft | 297 kts | 92° |
| 2026-05-07 20:01 | 51.05388 | 3.92296 | 10272 ft | 294 kts | 92° |
| 2026-05-07 20:01 | 51.05317 | 3.95529 | 9952 ft | 292 kts | 92° |
| 2026-05-07 20:01 | 51.05245 | 3.98736 | 9582 ft | 290 kts | 92° |
| 2026-05-07 20:01 | 51.05173 | 4.01927 | 9224 ft | 288 kts | 92° |
| 2026-05-07 20:02 | 51.05121 | 4.04249 | 8976 ft | 286 kts | 92° |
| 2026-05-07 20:02 | 51.05050 | 4.07425 | 8603 ft | 284 kts | 92° |
| 2026-05-07 20:02 | 51.04981 | 4.10519 | 8258 ft | 282 kts | 92° |
| 2026-05-07 20:02 | 51.04913 | 4.13624 | 8071 ft | 281 kts | 92° |
| 2026-05-07 20:03 | 51.04955 | 4.16728 | 8082 ft | 282 kts | 88° |
| 2026-05-07 20:03 | 51.05050 | 4.19841 | 8080 ft | 282 kts | 88° |
| 2026-05-07 20:03 | 51.05149 | 4.22953 | 8083 ft | 282 kts | 88° |
| 2026-05-07 20:03 | 51.05248 | 4.26065 | 8084 ft | 282 kts | 88° |
| 2026-05-07 20:04 | 51.05345 | 4.29174 | 8082 ft | 282 kts | 88° |
| 2026-05-07 20:04 | 51.05442 | 4.32276 | 7923 ft | 280 kts | 88° |
| 2026-05-07 20:04 | 51.05538 | 4.35355 | 7581 ft | 278 kts | 88° |
| 2026-05-07 20:04 | 51.05633 | 4.38424 | 7243 ft | 277 kts | 88° |
| 2026-05-07 20:05 | 51.05728 | 4.41469 | 6911 ft | 275 kts | 88° |
| 2026-05-07 20:05 | 51.05821 | 4.44491 | 6592 ft | 273 kts | 88° |
| 2026-05-07 20:05 | 51.05914 | 4.47498 | 6258 ft | 271 kts | 88° |
| 2026-05-07 20:05 | 51.06004 | 4.50474 | 5927 ft | 269 kts | 88° |
| 2026-05-07 20:06 | 51.06090 | 4.53390 | 5603 ft | 266 kts | 88° |
| 2026-05-07 20:06 | 51.06174 | 4.56318 | 5282 ft | 264 kts | 88° |
| 2026-05-07 20:06 | 51.06255 | 4.59226 | 4962 ft | 262 kts | 88° |
| 2026-05-07 20:06 | 51.06332 | 4.62102 | 4639 ft | 260 kts | 88° |
| 2026-05-07 20:07 | 51.06407 | 4.64966 | 4292 ft | 258 kts | 88° |
| 2026-05-07 20:07 | 51.06479 | 4.67819 | 3941 ft | 257 kts | 88° |
| 2026-05-07 20:07 | 51.06550 | 4.70649 | 3610 ft | 256 kts | 88° |
| 2026-05-07 20:07 | 51.06619 | 4.73470 | 3272 ft | 255 kts | 88° |
| 2026-05-07 20:08 | 51.06649 | 4.76270 | 2972 ft | 252 kts | 95° |
| 2026-05-07 20:08 | 51.06057 | 4.78797 | 2843 ft | 242 kts | 126° |
| 2026-05-07 20:08 | 51.04768 | 4.80385 | 2717 ft | 233 kts | 159° |
| 2026-05-07 20:08 | 51.03199 | 4.80605 | 2523 ft | 228 kts | 192° |
| 2026-05-07 20:09 | 51.01806 | 4.79474 | 2221 ft | 228 kts | 218° |
| 2026-05-07 20:09 | 51.00614 | 4.77820 | 2024 ft | 226 kts | 222° |
| 2026-05-07 20:09 | 50.99509 | 4.76197 | 2003 ft | 212 kts | 223° |
| 2026-05-07 20:10 | 50.97494 | 4.73192 | 2042 ft | 191 kts | 223° |
| 2026-05-07 20:10 | 50.96535 | 4.71755 | 2009 ft | 189 kts | 223° |
| 2026-05-07 20:10 | 50.95580 | 4.70322 | 2010 ft | 188 kts | 223° |
| 2026-05-07 20:10 | 50.94631 | 4.68900 | 2013 ft | 188 kts | 223° |
| 2026-05-07 20:11 | 50.93684 | 4.67483 | 2008 ft | 184 kts | 223° |
| 2026-05-07 20:11 | 50.93006 | 4.65891 | 1928 ft | 166 kts | 248° |
| 2026-05-07 20:11 | 50.92641 | 4.64299 | 1762 ft | 145 kts | 250° |
| 2026-05-07 20:11 | 50.92308 | 4.62845 | 1587 ft | 137 kts | 250° |
| 2026-05-07 20:12 | 50.91987 | 4.61446 | 1407 ft | 134 kts | 250° |
| 2026-05-07 20:12 | 50.91670 | 4.60064 | 1236 ft | 133 kts | 250° |
| 2026-05-07 20:12 | 50.91356 | 4.58697 | 1056 ft | 132 kts | 250° |
| 2026-05-07 20:12 | 50.91043 | 4.57336 | 864 ft | 131 kts | 250° |
| 2026-05-07 20:13 | 50.90733 | 4.55986 | 692 ft | 130 kts | 250° |
| 2026-05-07 20:13 | 50.90425 | 4.54646 | 520 ft | 129 kts | 250° |
| 2026-05-07 20:13 | 50.90117 | 4.53309 | 355 ft | 129 kts | 250° |
| 2026-05-07 20:13 | 50.89814 | 4.51977 | 198 ft | 128 kts | 250° |
| 2026-05-07 20:14 | 50.89546 | 4.50797 | 175 ft | 96 kts | 249° |
| 2026-05-07 20:14 | 50.89495 | 4.50341 | 175 ft | 16 kts | 283° |
| 2026-05-07 20:14 | 50.89506 | 4.50154 | 172 ft | 8 kts | 280° |
| 2026-05-07 20:14 | 50.89511 | 4.50116 | 171 ft | 4 kts | 283° |
| 2026-05-07 20:15 | 50.89523 | 4.50041 | 170 ft | 10 kts | 283° |
| 2026-05-07 20:15 | 50.89537 | 4.49917 | 168 ft | 10 kts | 261° |
| 2026-05-07 20:15 | 50.89509 | 4.49792 | 168 ft | 14 kts | 248° |
| 2026-05-07 20:15 | 50.89469 | 4.49643 | 168 ft | 16 kts | 249° |
| 2026-05-07 20:16 | 50.89453 | 4.49483 | 166 ft | 14 kts | 298° |
| 2026-05-07 20:16 | 50.89524 | 4.49345 | 162 ft | 19 kts | 308° |
| 2026-05-07 20:16 | 50.89599 | 4.49239 | 155 ft | 16 kts | 357° |
| 2026-05-07 20:16 | 50.89728 | 4.49296 | 148 ft | 23 kts | 15° |
| 2026-05-07 20:17 | 50.89836 | 4.49340 | 141 ft | 9 kts | 14° |
| 2026-05-07 20:17 | 50.89842 | 4.49342 | 140 ft | 2 kts | 14° |
| 2026-05-07 20:17 | 50.89845 | 4.49343 | 140 ft | 0 kts | 14° |
| 2026-05-07 20:18 | 50.89874 | 4.49355 | 138 ft | 8 kts | 14° |
| 2026-05-07 20:18 | 50.89950 | 4.49386 | 134 ft | 13 kts | 13° |
| 2026-05-07 20:18 | 50.89998 | 4.49321 | 132 ft | 11 kts | 258° |
| 2026-05-07 20:18 | 50.89976 | 4.49240 | 134 ft | 6 kts | 253° |
| 2026-05-07 20:19 | 50.89963 | 4.49172 | 135 ft | 7 kts | 247° |
| 2026-05-07 20:19 | 50.89940 | 4.49094 | 136 ft | 9 kts | 245° |
| 2026-05-07 20:19 | 50.89911 | 4.48993 | 136 ft | 12 kts | 245° |
| 2026-05-07 20:19 | 50.89873 | 4.48866 | 136 ft | 13 kts | 244° |
| 2026-05-07 20:20 | 50.89845 | 4.48763 | 136 ft | 3 kts | 252° |
| 2026-05-07 20:20 | 50.89850 | 4.48741 | 136 ft | 2 kts | 307° |
| 2026-05-07 20:20 | 50.89867 | 4.48727 | 135 ft | 4 kts | 338° |
| 2026-05-07 20:20 | 50.89901 | 4.48704 | 132 ft | 6 kts | 336° |
| 2026-05-07 20:21 | 50.89931 | 4.48682 | 130 ft | 5 kts | 335° |
| 2026-05-07 20:21 | 50.89941 | 4.48675 | 130 ft | 0 kts | 335° |